Weather observations for the past three days for
Monmouth Executive Airport
Imperial (Metric)
Date Time (edt) Wind (mph) Vis. (mi.) Weather Sky Cond. Temperature (ºF) Relative Humidity Wind Chill (°F) Heat Index (°F) Pressure Precipitation (in)
Air Dwpt 6 hour altimeter (in) sea level (mb) 1 hr 3 hr 6 hr
Max. Min.
04 20:56 S 9 10.00 Fair CLR 62.1 46 56% 29.88 1011.7
04 19:56 S 9 G 18 10.00 Fair CLR 64.9 43 73.9 64.9 45% 29.85 1010.9
04 18:56 S 15 G 20 10.00 Fair CLR 66.9 44.1 44% 29.84 1010.4
04 17:56 SE 14 G 20 10.00 Fair CLR 69.1 46.9 45% 29.84 1010.3
04 16:56 SE 12 10.00 Fair CLR 68 48 49% 29.84 1010.4
04 15:56 SW 9 G 20 10.00 Fair CLR 73.9 36 25% 29.84 1010.5
04 14:56 W 12 G 22 10.00 Fair CLR 73 36 26% 29.87 1011.3
04 13:56 W 12 G 20 10.00 Fair CLR 72 37 72 53.1 28% 29.89 1012.0
04 12:56 SW 12 G 18 10.00 Fair CLR 70 36 29% 29.91 1012.8
04 11:56 SW 16 G 23 10.00 A Few Clouds FEW070 68 35.1 30% 29.93 1013.6
04 10:56 SW 13 G 21 10.00 Fair CLR 66 36 33% 29.94 1014.0
04 09:56 SW 16 G 24 10.00 Fair CLR 64 36 35% 29.95 1014.3
04 08:56 SW 8 G 20 10.00 Fair CLR 59 41 51% 29.97 1015.0
04 07:56 SW 14 G 20 10.00 Fair CLR 53.1 43 53.1 46 69% 29.98 1015.3
04 06:56 SW 10 10.00 Fair CLR 50 41 71% 46 29.99 1015.6
04 05:56 SW 12 G 17 10.00 Fair CLR 48 37.9 68% 44 29.99 1015.5
04 04:56 SW 9 10.00 Fair CLR 46 34 63% 42 29.98 1015.4
04 03:56 SW 7 10.00 Fair CLR 46.9 33.1 59% 44 29.98 1015.2
04 02:56 SW 7 10.00 Fair CLR 46.9 32 56% 44 29.97 1014.8
04 01:56 SW 8 10.00 Fair CLR 48 30.9 55.9 48 52% 45 29.97 1014.8
04 00:56 SW 9 10.00 Fair CLR 48.9 30 48% 45 29.96 1014.6
03 23:56 SW 7 10.00 Fair CLR 50 30 46% 48 29.95 1014.2
03 22:56 SW 6 10.00 Fair CLR 48.9 28.9 46% 47 29.94 1013.9
03 21:56 SW 8 10.00 Fair CLR 51.1 28 41% 29.94 1013.9
03 20:56 SW 6 10.00 Fair CLR 53.1 27 37% 29.92 1013.2
03 19:56 SW 6 10.00 Fair CLR 55.9 26.1 60.1 54 32% 29.9 1012.5
03 18:56 W 12 G 16 10.00 Fair CLR 59 24.1 26% 29.88 1012.0
03 17:56 W 13 G 23 10.00 Fair CLR 59 23 25% 29.88 1011.9
03 16:56 W 22 G 28 10.00 A Few Clouds and Breezy FEW080 60.1 24.1 25% 29.86 1011.3
03 15:56 W 16 10.00 A Few Clouds FEW075 60.1 25 26% 29.87 1011.7
03 14:56 W 18 G 28 10.00 Partly Cloudy SCT070 57.9 27 31% 29.89 1012.1
03 13:56 W 14 G 26 10.00 Mostly Cloudy BKN065 54 26.1 55.9 46 34% 29.9 1012.6
03 12:56 W 17 G 29 10.00 Overcast BKN065 OVC075 53.1 27 37% 29.9 1012.7
03 11:56 NW 17 G 22 10.00 Mostly Cloudy BKN060 BKN080 53.1 26.1 35% 29.91 1012.9
03 10:56 W 18 G 23 10.00 Mostly Cloudy BKN055 52 28 40% 29.91 1013.0
03 09:56 W 15 10.00 Partly Cloudy FEW046 SCT090 50 30 46% 45 29.92 1013.1
03 08:56 NW 20 G 28 10.00 Overcast FEW075 OVC090 48 28.9 48% 42 29.91 1012.9
03 07:56 NW 13 10.00 Overcast BKN075 OVC090 46 30 50 46 54% 41 29.9 1012.7
03 06:56 NW 13 10.00 Overcast OVC090 46 30 54% 41 29.88 1011.9
03 05:56 NW 9 10.00 Overcast OVC070 46 28.9 51% 42 29.86 1011.1
03 04:56 N 9 10.00 Fair CLR 46 28 50% 42 29.84 1010.4
03 03:56 NW 12 10.00 Overcast OVC095 48 28 46% 44 29.84 1010.4
03 02:56 NW 8 10.00 Overcast OVC100 48.9 28 44% 46 29.84 1010.5
03 01:56 NW 7 10.00 Overcast OVC085 50 32 54 50 50% 48 29.84 1010.7
03 00:56 NW 7 10.00 Overcast OVC080 50 33.1 52% 48 29.86 1011.1
02 23:56 NW 6 10.00 Mostly Cloudy BKN080 50 35.1 57% 48 29.86 1011.3
02 22:56 W 5 10.00 Overcast OVC080 51.1 37.9 61% 29.86 1011.3
02 21:56 NW 5 10.00 Overcast OVC080 51.1 51.1 100% 29.87 1011.4
02 20:56 S 6 10.00 Fair CLR 51.1 50 96% 29.86 1011.2
02 19:56 Calm 10.00 Fair CLR 54 46 63 54 75% 29.85 1010.9
02 18:56 S 3 10.00 Fair CLR 55.9 44.1 65% 29.85 1010.8
02 17:56 Vrbl 5 10.00 Partly Cloudy SCT070 57 43 60% 29.84 1010.7
02 16:56 N 6 10.00 Overcast OVC070 60.1 34 38% 29.83 1010.2
02 15:56 SW 9 10.00 Mostly Cloudy BKN065 63 37.9 40% 29.84 1010.6
02 14:56 W 5 10.00 Overcast OVC048 57.9 39.9 51% 29.87 1011.6
02 13:56 Calm 10.00 Mostly Cloudy FEW038 SCT047 BKN060 57.9 42.1 59 51.1 56% 29.88 1011.8
02 12:56 NW 8 10.00 Overcast SCT034 BKN043 OVC080 57.9 45 62% 29.89 1012.2
02 11:56 Vrbl 3 10.00 Overcast SCT028 OVC080 57 48 72% 29.9 1012.6
02 10:56 W 7 10.00 Overcast OVC080 55 48 77% 29.9 1012.7
02 09:56 W 12 10.00 Overcast OVC075 55 48.9 80% 29.9 1012.6
02 08:56 W 8 10.00 Overcast FEW075 OVC100 55 48.9 80% 29.91 1013.0
02 07:56 W 5 10.00 Overcast OVC100 51.8 0 51.1 48 0% 29.91 1012.9
02 06:56 SW 6 10.00 Mostly Cloudy BKN065 BKN110 48.2 0 0% 46 29.9 1012.7
02 05:56 W 5 10.00 Overcast SCT048 OVC075 48.2 0 0% 47 29.89 1012.3
02 04:56 SW 5 10.00 A Few Clouds FEW065 48.2 0 0% 47 29.89 1012.2
02 03:56 SW 6 10.00 Mostly Cloudy BKN070 48.2 0 0% 46 29.9 1012.6
02 02:56 S 5 10.00 Mostly Cloudy BKN110 48.2 0 0% 47 29.89 1012.1
02 01:56 SW 8 10.00 Mostly Cloudy BKN110 50 50 54 48.9 100% 47 29.91 1012.7
02 00:56 S 5 10.00 A Few Clouds FEW110 48.9 48.9 100% 48 29.91 1012.8
01 23:56 S 5 10.00 Fair CLR 50 45 83% 49 29.91 1012.9
01 22:56 S 7 10.00 A Few Clouds FEW120 50 39 66% 48 29.91 1013.1
01 21:56 S 7 10.00 Fair CLR 51.1 39.9 66% 29.92 1013.2
Date Time (edt) Wind (mph) Vis. (mi.) Weather Sky Cond. Air Dwpt Max. Min. Relative Humidity Wind Chill (°F) Heat Index (°F) altimeter (in) sea level (mb) 1 hr 3 hr 6 hr
6 hour
Temperature (ºF) Pressure Precipitation (in)